sensor_id;sensor_type;location;lat;lon;timestamp;pressure;altitude;pressure_sealevel;temperature;humidity
80321;BME280;69633;47.066;15.450;2023-05-07T00:00:16;97605.25;;;16.33;76.19
80321;BME280;69633;47.066;15.450;2023-05-07T00:02:44;97600.22;;;16.28;76.56
80321;BME280;69633;47.066;15.450;2023-05-07T00:05:10;97600.31;;;16.35;75.73
80321;BME280;69633;47.066;15.450;2023-05-07T00:07:35;97589.69;;;16.42;75.39
80321;BME280;69633;47.066;15.450;2023-05-07T00:10:02;97575.06;;;16.36;75.58
80321;BME280;69633;47.066;15.450;2023-05-07T00:12:27;97569.72;;;16.36;75.38
80321;BME280;69633;47.066;15.450;2023-05-07T00:14:53;97569.00;;;16.42;75.12
80321;BME280;69633;47.066;15.450;2023-05-07T00:17:18;97567.97;;;16.51;74.64
80321;BME280;69633;47.066;15.450;2023-05-07T00:19:43;97559.25;;;16.57;74.61
80321;BME280;69633;47.066;15.450;2023-05-07T00:22:09;97550.16;;;16.65;74.39
80321;BME280;69633;47.066;15.450;2023-05-07T00:24:35;97553.31;;;16.74;73.59
80321;BME280;69633;47.066;15.450;2023-05-07T00:27:00;97563.19;;;16.67;74.04
80321;BME280;69633;47.066;15.450;2023-05-07T00:29:26;97581.66;;;16.42;74.59
80321;BME280;69633;47.066;15.450;2023-05-07T00:31:52;97582.78;;;16.41;75.39
80321;BME280;69633;47.066;15.450;2023-05-07T00:34:19;97580.88;;;16.41;75.34
80321;BME280;69633;47.066;15.450;2023-05-07T00:36:45;97572.81;;;16.38;74.87
80321;BME280;69633;47.066;15.450;2023-05-07T00:39:11;97586.72;;;16.51;74.03
80321;BME280;69633;47.066;15.450;2023-05-07T00:41:36;97584.41;;;16.49;74.81
80321;BME280;69633;47.066;15.450;2023-05-07T00:44:03;97580.59;;;16.50;75.33
80321;BME280;69633;47.066;15.450;2023-05-07T00:46:30;97592.03;;;16.47;75.19
80321;BME280;69633;47.066;15.450;2023-05-07T00:48:56;97598.13;;;16.44;75.30
80321;BME280;69633;47.066;15.450;2023-05-07T00:51:23;97598.78;;;16.34;75.79
80321;BME280;69633;47.066;15.450;2023-05-07T00:53:50;97595.28;;;16.30;76.12
80321;BME280;69633;47.066;15.450;2023-05-07T00:56:16;97594.19;;;16.34;75.80
80321;BME280;69633;47.066;15.450;2023-05-07T00:58:42;97595.72;;;16.35;75.86
80321;BME280;69633;47.066;15.450;2023-05-07T01:01:08;97589.63;;;16.38;75.63
80321;BME280;69633;47.066;15.450;2023-05-07T01:03:33;97584.22;;;16.35;75.78
80321;BME280;69633;47.066;15.450;2023-05-07T01:05:59;97585.03;;;16.39;75.49
80321;BME280;69633;47.066;15.450;2023-05-07T01:08:26;97584.97;;;16.32;75.06
80321;BME280;69633;47.066;15.450;2023-05-07T01:10:54;97584.06;;;16.21;75.83
80321;BME280;69633;47.066;15.450;2023-05-07T01:13:20;97586.66;;;16.14;75.69
80321;BME280;69633;47.066;15.450;2023-05-07T01:15:46;97598.00;;;16.04;76.10
80321;BME280;69633;47.066;15.450;2023-05-07T01:18:12;97577.56;;;15.92;75.97
80321;BME280;69633;47.066;15.450;2023-05-07T01:20:37;97586.69;;;15.87;76.16
80321;BME280;69633;47.066;15.450;2023-05-07T01:23:03;97576.59;;;15.77;75.90
80321;BME280;69633;47.066;15.450;2023-05-07T01:25:29;97581.56;;;15.79;75.76
80321;BME280;69633;47.066;15.450;2023-05-07T01:27:55;97577.72;;;15.76;75.42
80321;BME280;69633;47.066;15.450;2023-05-07T01:30:21;97576.13;;;15.72;74.78
80321;BME280;69633;47.066;15.450;2023-05-07T01:33:00;97567.94;;;15.61;74.46
80321;BME280;69633;47.066;15.450;2023-05-07T01:35:32;97573.91;;;15.51;73.92
80321;BME280;69633;47.066;15.450;2023-05-07T01:38:00;97562.31;;;15.43;74.63
80321;BME280;69633;47.066;15.450;2023-05-07T01:40:27;97568.78;;;15.42;74.36
80321;BME280;69633;47.066;15.450;2023-05-07T01:42:54;97565.75;;;15.44;74.38
80321;BME280;69633;47.066;15.450;2023-05-07T01:45:19;97573.69;;;15.37;74.45
80321;BME280;69633;47.066;15.450;2023-05-07T01:47:45;97566.06;;;15.39;74.31
80321;BME280;69633;47.066;15.450;2023-05-07T01:50:11;97573.16;;;15.51;73.61
80321;BME280;69633;47.066;15.450;2023-05-07T01:52:38;97575.56;;;15.59;73.64
80321;BME280;69633;47.066;15.450;2023-05-07T01:55:04;97574.03;;;15.58;74.08
80321;BME280;69633;47.066;15.450;2023-05-07T01:57:30;97570.22;;;15.59;73.68
80321;BME280;69633;47.066;15.450;2023-05-07T01:59:55;97576.22;;;15.53;74.00
80321;BME280;69633;47.066;15.450;2023-05-07T02:02:21;97574.91;;;15.43;74.49
80321;BME280;69633;47.066;15.450;2023-05-07T02:04:46;97574.06;;;15.39;74.38
80321;BME280;69633;47.066;15.450;2023-05-07T02:07:12;97578.31;;;15.40;74.37
80321;BME280;69633;47.066;15.450;2023-05-07T02:09:37;97580.16;;;15.36;74.44
80321;BME280;69633;47.066;15.450;2023-05-07T02:12:03;97580.44;;;15.31;74.75
80321;BME280;69633;47.066;15.450;2023-05-07T02:14:28;97574.25;;;15.27;74.45
80321;BME280;69633;47.066;15.450;2023-05-07T02:16:54;97568.41;;;15.18;75.15
80321;BME280;69633;47.066;15.450;2023-05-07T02:19:19;97568.03;;;15.19;75.24
80321;BME280;69633;47.066;15.450;2023-05-07T02:21:46;97574.16;;;15.20;74.88
80321;BME280;69633;47.066;15.450;2023-05-07T02:24:13;97570.34;;;15.21;75.36
80321;BME280;69633;47.066;15.450;2023-05-07T02:26:40;97579.31;;;15.09;75.02
80321;BME280;69633;47.066;15.450;2023-05-07T02:29:06;97582.34;;;15.08;74.76
80321;BME280;69633;47.066;15.450;2023-05-07T02:31:31;97587.28;;;15.06;75.61
80321;BME280;69633;47.066;15.450;2023-05-07T02:33:59;97586.84;;;15.04;75.24
80321;BME280;69633;47.066;15.450;2023-05-07T02:36:24;97583.66;;;14.94;75.63
80321;BME280;69633;47.066;15.450;2023-05-07T02:38:49;97581.63;;;14.88;75.66
80321;BME280;69633;47.066;15.450;2023-05-07T02:41:15;97575.06;;;14.85;76.02
80321;BME280;69633;47.066;15.450;2023-05-07T02:43:40;97579.59;;;14.81;76.29
80321;BME280;69633;47.066;15.450;2023-05-07T02:46:08;97576.00;;;14.74;75.95
80321;BME280;69633;47.066;15.450;2023-05-07T02:48:35;97578.63;;;14.70;76.10
80321;BME280;69633;47.066;15.450;2023-05-07T02:51:02;97570.53;;;14.67;76.20
80321;BME280;69633;47.066;15.450;2023-05-07T02:53:28;97573.94;;;14.64;76.23
80321;BME280;69633;47.066;15.450;2023-05-07T02:55:58;97573.00;;;14.56;76.03
80321;BME280;69633;47.066;15.450;2023-05-07T02:58:24;97570.72;;;14.55;76.45
80321;BME280;69633;47.066;15.450;2023-05-07T03:00:50;97578.34;;;14.56;76.86
80321;BME280;69633;47.066;15.450;2023-05-07T03:03:16;97579.84;;;14.54;76.40
80321;BME280;69633;47.066;15.450;2023-05-07T03:05:41;97580.91;;;14.49;76.63
80321;BME280;69633;47.066;15.450;2023-05-07T03:08:07;97580.13;;;14.48;76.80
80321;BME280;69633;47.066;15.450;2023-05-07T03:10:33;97579.66;;;14.43;76.69
80321;BME280;69633;47.066;15.450;2023-05-07T03:12:58;97578.81;;;14.39;76.70
80321;BME280;69633;47.066;15.450;2023-05-07T03:15:24;97586.38;;;14.37;76.50
80321;BME280;69633;47.066;15.450;2023-05-07T03:17:49;97589.03;;;14.37;76.61
80321;BME280;69633;47.066;15.450;2023-05-07T03:20:15;97588.63;;;14.35;77.03
80321;BME280;69633;47.066;15.450;2023-05-07T03:22:40;97591.72;;;14.37;76.68
80321;BME280;69633;47.066;15.450;2023-05-07T03:25:07;97587.06;;;14.34;76.46
80321;BME280;69633;47.066;15.450;2023-05-07T03:27:32;97585.34;;;14.26;76.72
80321;BME280;69633;47.066;15.450;2023-05-07T03:29:58;97586.91;;;14.27;76.67
80321;BME280;69633;47.066;15.450;2023-05-07T03:32:23;97595.91;;;14.19;76.81
80321;BME280;69633;47.066;15.450;2023-05-07T03:34:49;97607.63;;;14.14;76.77
80321;BME280;69633;47.066;15.450;2023-05-07T03:37:14;97599.59;;;14.14;76.64
80321;BME280;69633;47.066;15.450;2023-05-07T03:39:40;97605.31;;;14.13;76.93
80321;BME280;69633;47.066;15.450;2023-05-07T03:42:05;97604.16;;;14.14;76.82
80321;BME280;69633;47.066;15.450;2023-05-07T03:44:30;97609.50;;;14.14;76.65
80321;BME280;69633;47.066;15.450;2023-05-07T03:46:56;97614.84;;;14.14;76.60
80321;BME280;69633;47.066;15.450;2023-05-07T03:49:21;97611.50;;;14.17;76.39
80321;BME280;69633;47.066;15.450;2023-05-07T03:51:47;97610.34;;;14.18;76.32
80321;BME280;69633;47.066;15.450;2023-05-07T03:54:12;97613.41;;;14.16;76.25
80321;BME280;69633;47.066;15.450;2023-05-07T03:56:37;97614.16;;;14.17;76.21
80321;BME280;69633;47.066;15.450;2023-05-07T03:59:03;97609.25;;;14.19;75.99
80321;BME280;69633;47.066;15.450;2023-05-07T04:01:28;97616.53;;;14.22;75.68
80321;BME280;69633;47.066;15.450;2023-05-07T04:03:55;97615.94;;;14.28;75.67
80321;BME280;69633;47.066;15.450;2023-05-07T04:06:20;97630.22;;;14.36;75.46
80321;BME280;69633;47.066;15.450;2023-05-07T04:08:46;97621.53;;;14.39;75.23
80321;BME280;69633;47.066;15.450;2023-05-07T04:11:11;97631.38;;;14.35;75.37
80321;BME280;69633;47.066;15.450;2023-05-07T04:13:36;97622.84;;;14.14;76.24
80321;BME280;69633;47.066;15.450;2023-05-07T04:16:03;97633.13;;;14.12;76.31
80321;BME280;69633;47.066;15.450;2023-05-07T04:18:29;97630.13;;;14.13;76.47
80321;BME280;69633;47.066;15.450;2023-05-07T04:20:54;97631.97;;;14.28;76.04
80321;BME280;69633;47.066;15.450;2023-05-07T04:23:20;97627.53;;;14.36;75.79
80321;BME280;69633;47.066;15.450;2023-05-07T04:25:46;97630.59;;;14.34;75.68
80321;BME280;69633;47.066;15.450;2023-05-07T04:28:11;97639.00;;;14.36;75.45
80321;BME280;69633;47.066;15.450;2023-05-07T04:30:38;97629.09;;;14.37;75.36
80321;BME280;69633;47.066;15.450;2023-05-07T04:33:03;97632.72;;;14.29;75.38
80321;BME280;69633;47.066;15.450;2023-05-07T04:35:29;97638.34;;;14.24;75.93
80321;BME280;69633;47.066;15.450;2023-05-07T04:37:54;97646.28;;;14.20;75.54
80321;BME280;69633;47.066;15.450;2023-05-07T04:40:20;97649.94;;;14.31;75.40
80321;BME280;69633;47.066;15.450;2023-05-07T04:42:46;97648.06;;;14.32;75.19
80321;BME280;69633;47.066;15.450;2023-05-07T04:45:11;97654.94;;;14.33;75.14
80321;BME280;69633;47.066;15.450;2023-05-07T04:47:38;97660.03;;;14.38;75.00
80321;BME280;69633;47.066;15.450;2023-05-07T04:50:04;97660.06;;;14.57;74.65
80321;BME280;69633;47.066;15.450;2023-05-07T04:52:29;97657.84;;;14.63;74.19
80321;BME280;69633;47.066;15.450;2023-05-07T04:54:55;97663.84;;;14.56;74.38
80321;BME280;69633;47.066;15.450;2023-05-07T04:57:21;97659.19;;;14.53;74.59
80321;BME280;69633;47.066;15.450;2023-05-07T04:59:46;97660.97;;;14.65;74.09
80321;BME280;69633;47.066;15.450;2023-05-07T05:02:11;97664.34;;;14.81;73.56
80321;BME280;69633;47.066;15.450;2023-05-07T05:04:37;97662.91;;;15.06;72.65
80321;BME280;69633;47.066;15.450;2023-05-07T05:07:02;97659.31;;;15.18;72.29
80321;BME280;69633;47.066;15.450;2023-05-07T05:09:31;97664.47;;;15.30;71.74
80321;BME280;69633;47.066;15.450;2023-05-07T05:11:56;97665.25;;;15.30;72.04
80321;BME280;69633;47.066;15.450;2023-05-07T05:14:21;97667.75;;;15.42;71.16
80321;BME280;69633;47.066;15.450;2023-05-07T05:16:47;97675.25;;;15.56;71.01
80321;BME280;69633;47.066;15.450;2023-05-07T05:19:12;97673.31;;;15.53;71.05
80321;BME280;69633;47.066;15.450;2023-05-07T05:21:38;97675.22;;;15.33;70.98
80321;BME280;69633;47.066;15.450;2023-05-07T05:24:03;97676.88;;;15.19;71.66
80321;BME280;69633;47.066;15.450;2023-05-07T05:26:29;97677.25;;;15.17;72.09
80321;BME280;69633;47.066;15.450;2023-05-07T05:28:54;97684.00;;;15.11;72.37
80321;BME280;69633;47.066;15.450;2023-05-07T05:31:19;97675.63;;;15.13;72.15
80321;BME280;69633;47.066;15.450;2023-05-07T05:33:45;97675.28;;;15.14;72.27
80321;BME280;69633;47.066;15.450;2023-05-07T05:36:10;97678.28;;;15.32;71.68
80321;BME280;69633;47.066;15.450;2023-05-07T05:38:37;97686.41;;;15.39;71.23
80321;BME280;69633;47.066;15.450;2023-05-07T05:41:02;97693.66;;;15.38;71.03
80321;BME280;69633;47.066;15.450;2023-05-07T05:43:28;97687.66;;;15.45;71.06
80321;BME280;69633;47.066;15.450;2023-05-07T05:45:54;97685.56;;;15.54;70.68
80321;BME280;69633;47.066;15.450;2023-05-07T05:48:20;97694.88;;;15.64;70.52
80321;BME280;69633;47.066;15.450;2023-05-07T05:50:45;97689.91;;;15.62;70.69
80321;BME280;69633;47.066;15.450;2023-05-07T05:53:11;97692.59;;;15.62;70.74
80321;BME280;69633;47.066;15.450;2023-05-07T05:55:37;97689.84;;;15.81;70.17
80321;BME280;69633;47.066;15.450;2023-05-07T05:58:02;97694.13;;;16.12;69.71
80321;BME280;69633;47.066;15.450;2023-05-07T06:00:28;97691.56;;;16.19;69.15
80321;BME280;69633;47.066;15.450;2023-05-07T06:02:54;97685.84;;;16.21;69.64
80321;BME280;69633;47.066;15.450;2023-05-07T06:05:19;97690.41;;;16.20;69.37
80321;BME280;69633;47.066;15.450;2023-05-07T06:07:45;97691.19;;;16.21;69.60
80321;BME280;69633;47.066;15.450;2023-05-07T06:10:11;97689.81;;;16.30;69.01
80321;BME280;69633;47.066;15.450;2023-05-07T06:12:36;97687.53;;;16.32;68.79
80321;BME280;69633;47.066;15.450;2023-05-07T06:15:02;97692.03;;;16.25;69.17
80321;BME280;69633;47.066;15.450;2023-05-07T06:17:27;97686.84;;;16.39;68.91
80321;BME280;69633;47.066;15.450;2023-05-07T06:19:53;97676.81;;;16.32;68.72
80321;BME280;69633;47.066;15.450;2023-05-07T06:22:19;97691.19;;;16.47;68.67
80321;BME280;69633;47.066;15.450;2023-05-07T06:24:44;97682.47;;;16.83;67.63
80321;BME280;69633;47.066;15.450;2023-05-07T06:27:10;97691.47;;;16.98;67.10
80321;BME280;69633;47.066;15.450;2023-05-07T06:29:35;97691.41;;;16.95;67.12
80321;BME280;69633;47.066;15.450;2023-05-07T06:32:10;97691.59;;;17.09;66.31
80321;BME280;69633;47.066;15.450;2023-05-07T06:34:37;97696.28;;;17.19;65.33
80321;BME280;69633;47.066;15.450;2023-05-07T06:37:02;97696.31;;;17.22;65.40
80321;BME280;69633;47.066;15.450;2023-05-07T06:39:28;97695.31;;;17.37;65.28
80321;BME280;69633;47.066;15.450;2023-05-07T06:41:53;97688.78;;;17.75;64.58
80321;BME280;69633;47.066;15.450;2023-05-07T06:44:19;97694.69;;;17.92;64.08
80321;BME280;69633;47.066;15.450;2023-05-07T06:46:44;97696.44;;;18.21;63.30
80321;BME280;69633;47.066;15.450;2023-05-07T06:49:12;97680.84;;;18.44;62.57
80321;BME280;69633;47.066;15.450;2023-05-07T06:51:38;97693.44;;;18.33;62.49
80321;BME280;69633;47.066;15.450;2023-05-07T06:54:04;97697.81;;;18.52;62.84
80321;BME280;69633;47.066;15.450;2023-05-07T06:56:32;97696.81;;;18.95;61.62
80321;BME280;69633;47.066;15.450;2023-05-07T06:58:59;97699.50;;;18.88;61.28
80321;BME280;69633;47.066;15.450;2023-05-07T07:01:25;97703.81;;;19.21;60.89
80321;BME280;69633;47.066;15.450;2023-05-07T07:03:50;97709.69;;;19.44;59.70
80321;BME280;69633;47.066;15.450;2023-05-07T07:06:16;97710.78;;;19.29;59.25
80321;BME280;69633;47.066;15.450;2023-05-07T07:08:42;97714.69;;;19.49;58.80
80321;BME280;69633;47.066;15.450;2023-05-07T07:11:08;97707.78;;;19.62;58.82
80321;BME280;69633;47.066;15.450;2023-05-07T07:13:33;97708.97;;;19.75;58.11
80321;BME280;69633;47.066;15.450;2023-05-07T07:15:59;97708.56;;;19.70;58.48
80321;BME280;69633;47.066;15.450;2023-05-07T07:18:25;97705.50;;;19.82;58.18
80321;BME280;69633;47.066;15.450;2023-05-07T07:20:50;97707.41;;;19.99;58.60
80321;BME280;69633;47.066;15.450;2023-05-07T07:23:16;97712.41;;;20.22;57.59
80321;BME280;69633;47.066;15.450;2023-05-07T07:25:41;97716.25;;;20.46;57.24
80321;BME280;69633;47.066;15.450;2023-05-07T07:28:07;97711.97;;;20.52;56.81
80321;BME280;69633;47.066;15.450;2023-05-07T07:30:32;97715.44;;;20.59;56.31
80321;BME280;69633;47.066;15.450;2023-05-07T07:32:58;97714.63;;;20.77;56.36
80321;BME280;69633;47.066;15.450;2023-05-07T07:35:31;97713.16;;;20.40;56.76
80321;BME280;69633;47.066;15.450;2023-05-07T07:37:56;97717.31;;;20.77;56.55
80321;BME280;69633;47.066;15.450;2023-05-07T07:40:22;97714.25;;;20.67;56.37
80321;BME280;69633;47.066;15.450;2023-05-07T07:42:48;97712.78;;;20.45;56.68
80321;BME280;69633;47.066;15.450;2023-05-07T07:45:14;97717.00;;;20.25;57.81
80321;BME280;69633;47.066;15.450;2023-05-07T07:47:39;97715.88;;;20.19;57.62
80321;BME280;69633;47.066;15.450;2023-05-07T07:50:06;97707.41;;;20.38;57.63
80321;BME280;69633;47.066;15.450;2023-05-07T07:52:32;97706.13;;;20.74;56.78
80321;BME280;69633;47.066;15.450;2023-05-07T07:54:57;97698.91;;;20.36;57.33
80321;BME280;69633;47.066;15.450;2023-05-07T07:57:23;97700.84;;;20.46;57.46
80321;BME280;69633;47.066;15.450;2023-05-07T07:59:49;97710.31;;;20.90;56.28
80321;BME280;69633;47.066;15.450;2023-05-07T08:02:15;97704.66;;;20.56;57.34
80321;BME280;69633;47.066;15.450;2023-05-07T08:04:41;97702.66;;;20.78;56.90
80321;BME280;69633;47.066;15.450;2023-05-07T08:07:12;97703.63;;;21.26;55.52
80321;BME280;69633;47.066;15.450;2023-05-07T08:09:38;97712.94;;;21.07;55.58
80321;BME280;69633;47.066;15.450;2023-05-07T08:12:04;97709.94;;;20.91;56.42
80321;BME280;69633;47.066;15.450;2023-05-07T08:14:30;97703.38;;;20.89;56.59
80321;BME280;69633;47.066;15.450;2023-05-07T08:16:55;97714.47;;;21.15;55.81
80321;BME280;69633;47.066;15.450;2023-05-07T08:19:21;97699.78;;;21.24;55.42
80321;BME280;69633;47.066;15.450;2023-05-07T08:21:47;97705.97;;;21.24;55.30
80321;BME280;69633;47.066;15.450;2023-05-07T08:24:16;97706.03;;;21.03;55.72
80321;BME280;69633;47.066;15.450;2023-05-07T08:26:43;97703.69;;;21.08;55.86
80321;BME280;69633;47.066;15.450;2023-05-07T08:29:09;97703.59;;;21.37;54.88
80321;BME280;69633;47.066;15.450;2023-05-07T08:31:35;97707.44;;;21.94;53.97
80321;BME280;69633;47.066;15.450;2023-05-07T08:34:00;97712.47;;;21.89;53.56
80321;BME280;69633;47.066;15.450;2023-05-07T08:36:26;97708.47;;;22.11;52.96
80321;BME280;69633;47.066;15.450;2023-05-07T08:38:52;97702.84;;;22.32;52.09
80321;BME280;69633;47.066;15.450;2023-05-07T08:41:18;97706.22;;;22.81;51.98
80321;BME280;69633;47.066;15.450;2023-05-07T08:43:47;97699.63;;;22.82;51.31
80321;BME280;69633;47.066;15.450;2023-05-07T08:46:17;97696.25;;;22.74;51.64
80321;BME280;69633;47.066;15.450;2023-05-07T08:48:44;97693.56;;;22.33;53.08
80321;BME280;69633;47.066;15.450;2023-05-07T08:51:13;97698.06;;;22.06;53.45
80321;BME280;69633;47.066;15.450;2023-05-07T08:53:41;97679.44;;;22.52;52.25
80321;BME280;69633;47.066;15.450;2023-05-07T08:56:08;97688.38;;;22.87;50.99
80321;BME280;69633;47.066;15.450;2023-05-07T08:58:33;97683.63;;;22.60;51.88
80321;BME280;69633;47.066;15.450;2023-05-07T09:01:02;97684.13;;;22.48;51.78
80321;BME280;69633;47.066;15.450;2023-05-07T09:03:30;97687.16;;;22.88;51.15
80321;BME280;69633;47.066;15.450;2023-05-07T09:05:55;97686.34;;;22.91;51.05
80321;BME280;69633;47.066;15.450;2023-05-07T09:08:24;97691.13;;;22.80;51.65
80321;BME280;69633;47.066;15.450;2023-05-07T09:10:50;97685.81;;;23.03;50.68
80321;BME280;69633;47.066;15.450;2023-05-07T09:13:15;97684.88;;;22.52;51.25
80321;BME280;69633;47.066;15.450;2023-05-07T09:15:43;97692.53;;;23.22;50.23
80321;BME280;69633;47.066;15.450;2023-05-07T09:18:08;97691.81;;;23.48;49.45
80321;BME280;69633;47.066;15.450;2023-05-07T09:20:36;97689.69;;;23.32;50.38
80321;BME280;69633;47.066;15.450;2023-05-07T09:23:02;97685.72;;;23.10;50.64
80321;BME280;69633;47.066;15.450;2023-05-07T09:25:29;97694.06;;;22.58;51.44
80321;BME280;69633;47.066;15.450;2023-05-07T09:27:55;97692.31;;;22.41;52.14
80321;BME280;69633;47.066;15.450;2023-05-07T09:30:20;97691.41;;;22.55;51.55
80321;BME280;69633;47.066;15.450;2023-05-07T09:32:46;97689.03;;;22.94;50.45
80321;BME280;69633;47.066;15.450;2023-05-07T09:35:15;97686.72;;;22.93;50.18
80321;BME280;69633;47.066;15.450;2023-05-07T09:37:42;97684.97;;;22.42;51.25
80321;BME280;69633;47.066;15.450;2023-05-07T09:40:19;97688.81;;;22.44;51.65
80321;BME280;69633;47.066;15.450;2023-05-07T09:42:45;97687.84;;;22.61;50.94
80321;BME280;69633;47.066;15.450;2023-05-07T09:45:12;97682.72;;;23.04;49.90
80321;BME280;69633;47.066;15.450;2023-05-07T09:47:39;97684.84;;;22.90;50.04
80321;BME280;69633;47.066;15.450;2023-05-07T09:50:10;97695.88;;;22.31;50.72
80321;BME280;69633;47.066;15.450;2023-05-07T09:52:35;97693.16;;;21.87;51.65
80321;BME280;69633;47.066;15.450;2023-05-07T09:55:02;97696.34;;;21.75;52.60
80321;BME280;69633;47.066;15.450;2023-05-07T09:57:29;97695.00;;;22.04;51.71
80321;BME280;69633;47.066;15.450;2023-05-07T09:59:56;97692.94;;;22.19;51.74
80321;BME280;69633;47.066;15.450;2023-05-07T10:02:23;97691.09;;;22.49;50.55
80321;BME280;69633;47.066;15.450;2023-05-07T10:04:50;97689.25;;;23.07;49.11
80321;BME280;69633;47.066;15.450;2023-05-07T10:07:17;97681.31;;;23.77;47.78
80321;BME280;69633;47.066;15.450;2023-05-07T10:09:43;97678.06;;;24.08;47.68
80321;BME280;69633;47.066;15.450;2023-05-07T10:12:09;97679.31;;;24.04;47.78
80321;BME280;69633;47.066;15.450;2023-05-07T10:14:35;97678.16;;;23.55;48.63
80321;BME280;69633;47.066;15.450;2023-05-07T10:17:02;97682.78;;;23.58;48.30
80321;BME280;69633;47.066;15.450;2023-05-07T10:19:29;97677.78;;;24.26;46.90
80321;BME280;69633;47.066;15.450;2023-05-07T10:21:56;97679.19;;;24.34;46.30
80321;BME280;69633;47.066;15.450;2023-05-07T10:24:34;97676.69;;;24.43;46.05
80321;BME280;69633;47.066;15.450;2023-05-07T10:27:04;97673.09;;;24.03;46.47
80321;BME280;69633;47.066;15.450;2023-05-07T10:29:38;97659.97;;;24.25;46.16
80321;BME280;69633;47.066;15.450;2023-05-07T10:34:50;97652.25;;;25.02;44.49
80321;BME280;69633;47.066;15.450;2023-05-07T10:37:18;97658.44;;;24.64;45.09
80321;BME280;69633;47.066;15.450;2023-05-07T10:39:44;97656.00;;;24.30;44.83
80321;BME280;69633;47.066;15.450;2023-05-07T10:42:11;97651.97;;;24.38;45.41
80321;BME280;69633;47.066;15.450;2023-05-07T10:44:37;97657.00;;;24.39;46.60
80321;BME280;69633;47.066;15.450;2023-05-07T10:47:04;97660.53;;;24.76;45.76
80321;BME280;69633;47.066;15.450;2023-05-07T10:49:31;97655.47;;;25.33;44.32
80321;BME280;69633;47.066;15.450;2023-05-07T10:52:15;97660.13;;;25.33;44.11
80321;BME280;69633;47.066;15.450;2023-05-07T10:54:42;97649.25;;;24.97;43.92
80321;BME280;69633;47.066;15.450;2023-05-07T10:57:33;97652.31;;;24.60;44.27
80321;BME280;69633;47.066;15.450;2023-05-07T11:00:01;97648.72;;;24.86;44.33
80321;BME280;69633;47.066;15.450;2023-05-07T11:03:07;97648.13;;;25.14;43.91
80321;BME280;69633;47.066;15.450;2023-05-07T11:05:33;97650.03;;;25.33;43.90
80321;BME280;69633;47.066;15.450;2023-05-07T11:08:02;97650.06;;;25.82;42.48
80321;BME280;69633;47.066;15.450;2023-05-07T11:10:50;97641.13;;;25.49;42.95
80321;BME280;69633;47.066;15.450;2023-05-07T11:13:17;97633.75;;;25.82;42.21
80321;BME280;69633;47.066;15.450;2023-05-07T11:15:47;97636.41;;;25.49;42.44
80321;BME280;69633;47.066;15.450;2023-05-07T11:18:17;97638.50;;;25.62;41.92
80321;BME280;69633;47.066;15.450;2023-05-07T11:26:03;97625.50;;;25.85;42.45
80321;BME280;69633;47.066;15.450;2023-05-07T11:28:30;97634.22;;;26.09;42.03
80321;BME280;69633;47.066;15.450;2023-05-07T11:30:56;97628.00;;;26.09;41.95
80321;BME280;69633;47.066;15.450;2023-05-07T11:33:23;97631.50;;;25.93;41.75
80321;BME280;69633;47.066;15.450;2023-05-07T11:35:51;97623.84;;;26.20;41.48
80321;BME280;69633;47.066;15.450;2023-05-07T11:38:19;97625.91;;;26.58;40.99
80321;BME280;69633;47.066;15.450;2023-05-07T11:43:16;97617.56;;;25.91;41.67
80321;BME280;69633;47.066;15.450;2023-05-07T11:45:42;97616.22;;;25.50;42.26
80321;BME280;69633;47.066;15.450;2023-05-07T11:48:07;97620.47;;;25.84;41.92
80321;BME280;69633;47.066;15.450;2023-05-07T11:50:33;97615.88;;;25.48;41.52
80321;BME280;69633;47.066;15.450;2023-05-07T11:52:58;97606.53;;;25.33;42.43
80321;BME280;69633;47.066;15.450;2023-05-07T11:55:24;97601.28;;;25.26;41.94
80321;BME280;69633;47.066;15.450;2023-05-07T11:57:51;97602.41;;;24.73;42.80
80321;BME280;69633;47.066;15.450;2023-05-07T12:00:17;97599.91;;;25.18;42.33
80321;BME280;69633;47.066;15.450;2023-05-07T12:02:44;97602.31;;;26.10;40.45
80321;BME280;69633;47.066;15.450;2023-05-07T12:05:10;97603.81;;;25.82;40.43
80321;BME280;69633;47.066;15.450;2023-05-07T12:07:35;97604.41;;;25.89;40.70
80321;BME280;69633;47.066;15.450;2023-05-07T12:10:05;97599.94;;;25.67;41.62
80321;BME280;69633;47.066;15.450;2023-05-07T12:12:31;97611.13;;;25.36;42.30
80321;BME280;69633;47.066;15.450;2023-05-07T12:14:56;97615.28;;;25.41;42.72
80321;BME280;69633;47.066;15.450;2023-05-07T12:17:22;97615.81;;;26.13;41.41
80321;BME280;69633;47.066;15.450;2023-05-07T12:19:47;97613.47;;;25.99;41.25
80321;BME280;69633;47.066;15.450;2023-05-07T12:22:13;97608.13;;;25.47;41.77
80321;BME280;69633;47.066;15.450;2023-05-07T12:24:49;97612.00;;;24.97;42.81
80321;BME280;69633;47.066;15.450;2023-05-07T12:27:21;97617.31;;;25.37;42.28
80321;BME280;69633;47.066;15.450;2023-05-07T12:29:47;97616.25;;;26.12;41.17
80321;BME280;69633;47.066;15.450;2023-05-07T12:32:16;97605.13;;;26.64;40.30
80321;BME280;69633;47.066;15.450;2023-05-07T12:34:42;97599.94;;;27.07;39.53
80321;BME280;69633;47.066;15.450;2023-05-07T12:37:08;97598.22;;;26.88;40.25
80321;BME280;69633;47.066;15.450;2023-05-07T12:39:33;97594.63;;;26.50;40.85
80321;BME280;69633;47.066;15.450;2023-05-07T12:41:59;97605.09;;;26.22;41.03
80321;BME280;69633;47.066;15.450;2023-05-07T12:44:29;97609.09;;;25.73;41.90
80321;BME280;69633;47.066;15.450;2023-05-07T12:46:55;97615.84;;;25.00;42.82
80321;BME280;69633;47.066;15.450;2023-05-07T12:49:20;97605.06;;;24.57;43.43
80321;BME280;69633;47.066;15.450;2023-05-07T12:51:49;97614.97;;;24.47;44.40
80321;BME280;69633;47.066;15.450;2023-05-07T12:54:37;97609.03;;;24.52;44.08
80321;BME280;69633;47.066;15.450;2023-05-07T12:57:08;97607.59;;;24.28;43.89